createdAt,value
2023-05-12T00:00:57.209Z,1013.00
2023-05-12T00:01:57.159Z,1013.01
2023-05-12T00:02:57.231Z,1012.98
2023-05-12T00:03:57.359Z,1012.97
2023-05-12T00:04:57.820Z,1012.98
2023-05-12T00:05:57.151Z,1013.00
2023-05-12T00:06:57.120Z,1013.00
2023-05-12T00:07:57.140Z,1013.04
2023-05-12T00:08:57.133Z,1013.01
2023-05-12T00:09:57.175Z,1013.02
2023-05-12T00:10:57.122Z,1013.01
2023-05-12T00:11:57.113Z,1012.98
2023-05-12T00:12:57.119Z,1013.01
2023-05-12T00:13:57.219Z,1013.00
2023-05-12T00:14:57.135Z,1013.00
2023-05-12T00:15:57.173Z,1013.01
2023-05-12T00:16:57.131Z,1012.98
2023-05-12T00:17:57.149Z,1012.97
2023-05-12T00:18:57.194Z,1012.97
2023-05-12T00:19:57.108Z,1012.97
2023-05-12T00:20:57.155Z,1012.93
2023-05-12T00:21:57.796Z,1012.98
2023-05-12T00:22:57.116Z,1012.93
2023-05-12T00:23:57.113Z,1012.94
2023-05-12T00:24:57.115Z,1012.93
2023-05-12T00:25:57.111Z,1012.92
2023-05-12T00:26:57.121Z,1012.90
2023-05-12T00:27:57.127Z,1012.93
2023-05-12T00:28:57.127Z,1012.89
2023-05-12T00:29:57.108Z,1012.90
2023-05-12T00:30:57.107Z,1012.91
2023-05-12T00:31:57.221Z,1012.93
2023-05-12T00:32:57.186Z,1012.93
2023-05-12T00:33:57.105Z,1012.96
2023-05-12T00:34:57.118Z,1012.97
2023-05-12T00:35:57.115Z,1012.99
2023-05-12T00:36:57.105Z,1013.00
2023-05-12T00:37:57.102Z,1013.01
2023-05-12T00:38:57.113Z,1013.02
2023-05-12T00:39:57.104Z,1013.03
2023-05-12T00:40:57.104Z,1013.01
2023-05-12T00:41:57.110Z,1013.01
2023-05-12T00:42:57.110Z,1012.99
2023-05-12T00:43:57.118Z,1013.04
2023-05-12T00:44:57.099Z,1013.04
2023-05-12T00:45:57.182Z,1013.01
2023-05-12T00:46:57.106Z,1013.07
2023-05-12T00:47:57.159Z,1013.07
2023-05-12T00:48:57.096Z,1013.03
2023-05-12T00:49:57.104Z,1013.03
2023-05-12T00:50:57.097Z,1013.03
2023-05-12T00:51:57.099Z,1013.03
2023-05-12T00:52:57.092Z,1013.00
2023-05-12T00:53:57.094Z,1012.97
2023-05-12T00:54:57.096Z,1013.03
2023-05-12T00:55:57.147Z,1013.05
2023-05-12T00:56:57.127Z,1013.02
2023-05-12T00:57:57.109Z,1013.05
2023-05-12T00:58:57.091Z,1013.03
2023-05-12T00:59:57.100Z,1013.06
2023-05-12T01:00:57.112Z,1013.01
2023-05-12T01:01:57.093Z,1013.04
2023-05-12T01:02:57.188Z,1013.01
2023-05-12T01:03:57.099Z,1013.02
2023-05-12T01:04:57.095Z,1013.00
2023-05-12T01:05:57.093Z,1013.03
2023-05-12T01:06:57.087Z,1013.01
2023-05-12T01:08:04.316Z,1013.01
2023-05-12T01:10:01.092Z,1013.04
2023-05-12T01:11:01.073Z,1013.03
2023-05-12T01:13:05.133Z,1013.04
2023-05-12T01:14:05.094Z,1013.06
2023-05-12T01:16:09.094Z,1013.04
2023-05-12T01:17:09.143Z,1013.02
2023-05-12T01:19:02.135Z,1013.05
2023-05-12T01:20:02.018Z,1013.06
2023-05-12T01:21:55.123Z,1013.06
2023-05-12T01:22:55.134Z,1013.07
2023-05-12T01:24:59.137Z,1013.04
2023-05-12T01:25:59.111Z,1013.09
2023-05-12T01:28:03.114Z,1013.09
2023-05-12T01:29:03.121Z,1013.11
2023-05-12T01:31:07.148Z,1013.10
2023-05-12T01:32:07.111Z,1013.10
2023-05-12T01:34:11.132Z,1013.16
2023-05-12T01:35:11.125Z,1013.14
2023-05-12T01:37:15.123Z,1013.15
2023-05-12T01:38:15.137Z,1013.12
2023-05-12T01:40:19.915Z,1013.09
2023-05-12T01:41:19.302Z,1013.14
2023-05-12T01:43:23.309Z,1013.12
2023-05-12T01:44:23.292Z,1013.17
2023-05-12T01:46:27.307Z,1013.11
2023-05-12T01:47:27.337Z,1013.11
2023-05-12T01:49:20.806Z,1013.15
2023-05-12T01:50:20.551Z,1013.16
2023-05-12T01:52:24.393Z,1013.15
2023-05-12T01:53:24.358Z,1013.13
2023-05-12T01:55:28.378Z,1013.17
2023-05-12T01:56:28.359Z,1013.15
2023-05-12T01:58:32.380Z,1013.16
2023-05-12T01:59:32.405Z,1013.15
2023-05-12T02:01:36.448Z,1013.19
2023-05-12T02:02:36.438Z,1013.18
2023-05-12T02:04:40.385Z,1013.20
2023-05-12T02:05:40.366Z,1013.19
2023-05-12T02:07:44.371Z,1013.23
2023-05-12T02:08:44.379Z,1013.21
2023-05-12T02:10:48.431Z,1013.25
2023-05-12T02:11:48.355Z,1013.24
2023-05-12T02:13:52.378Z,1013.27
2023-05-12T02:14:52.371Z,1013.30
2023-05-12T02:16:56.394Z,1013.29
2023-05-12T02:17:56.429Z,1013.35
2023-05-12T02:20:01.407Z,1013.33
2023-05-12T02:21:01.385Z,1013.31
2023-05-12T02:23:05.388Z,1013.29
2023-05-12T02:24:05.388Z,1013.32
2023-05-12T02:26:09.387Z,1013.35
2023-05-12T02:27:09.434Z,1013.39
2023-05-12T02:29:02.285Z,1013.39
2023-05-12T02:30:02.282Z,1013.38
2023-05-12T02:32:06.395Z,1013.42
2023-05-12T02:33:06.350Z,1013.42
2023-05-12T02:35:10.295Z,1013.40
2023-05-12T02:36:10.263Z,1013.48
2023-05-12T02:37:10.280Z,1013.51
2023-05-12T02:38:10.269Z,1013.47
2023-05-12T02:39:10.266Z,1013.45
2023-05-12T02:40:10.263Z,1013.44
2023-05-12T02:41:10.255Z,1013.45
2023-05-12T02:42:10.266Z,1013.41
2023-05-12T02:43:10.259Z,1013.45
2023-05-12T02:44:10.268Z,1013.48
2023-05-12T02:45:10.263Z,1013.41
2023-05-12T02:46:10.312Z,1013.42
2023-05-12T02:47:10.259Z,1013.43
2023-05-12T02:48:10.314Z,1013.42
2023-05-12T02:49:10.256Z,1013.43
2023-05-12T02:50:10.272Z,1013.40
2023-05-12T02:51:10.273Z,1013.44
2023-05-12T02:52:10.254Z,1013.43
2023-05-12T02:53:10.268Z,1013.44
2023-05-12T02:54:10.253Z,1013.43
2023-05-12T02:55:10.262Z,1013.41
2023-05-12T02:56:10.265Z,1013.44
2023-05-12T02:57:10.255Z,1013.40
2023-05-12T02:58:10.265Z,1013.40
2023-05-12T02:59:10.252Z,1013.42
2023-05-12T03:00:10.255Z,1013.39
2023-05-12T03:01:11.474Z,1013.36
2023-05-12T03:02:10.546Z,1013.38
2023-05-12T03:03:10.293Z,1013.41
2023-05-12T03:04:10.267Z,1013.41
2023-05-12T03:05:10.280Z,1013.39
2023-05-12T03:06:10.253Z,1013.39
2023-05-12T03:07:10.252Z,1013.41
2023-05-12T03:08:10.256Z,1013.41
2023-05-12T03:09:10.261Z,1013.39
2023-05-12T03:10:10.268Z,1013.41
2023-05-12T03:11:10.323Z,1013.39
2023-05-12T03:12:10.305Z,1013.39
2023-05-12T03:13:10.246Z,1013.40
2023-05-12T03:14:10.271Z,1013.43
2023-05-12T03:15:10.250Z,1013.44
2023-05-12T03:16:10.242Z,1013.43
2023-05-12T03:17:10.290Z,1013.41
2023-05-12T03:18:10.265Z,1013.44
2023-05-12T03:19:10.390Z,1013.43
2023-05-12T03:20:10.335Z,1013.46
2023-05-12T03:21:10.237Z,1013.41
2023-05-12T03:22:10.243Z,1013.43
2023-05-12T03:23:10.249Z,1013.45
2023-05-12T03:24:10.237Z,1013.43
2023-05-12T03:25:10.268Z,1013.49
2023-05-12T03:26:10.265Z,1013.45
2023-05-12T03:27:10.271Z,1013.48
2023-05-12T03:28:10.242Z,1013.54
2023-05-12T03:29:10.226Z,1013.50
2023-05-12T03:30:10.235Z,1013.52
2023-05-12T03:31:10.318Z,1013.51
2023-05-12T03:32:10.224Z,1013.50
2023-05-12T03:33:10.219Z,1013.52
2023-05-12T03:34:10.222Z,1013.49
2023-05-12T03:35:10.233Z,1013.48
2023-05-12T03:36:10.257Z,1013.48
2023-05-12T03:37:10.210Z,1013.49
2023-05-12T03:38:10.232Z,1013.54
2023-05-12T03:39:10.228Z,1013.55
2023-05-12T03:40:10.226Z,1013.52
2023-05-12T03:41:10.224Z,1013.52
2023-05-12T03:42:10.222Z,1013.51
2023-05-12T03:43:10.214Z,1013.52
2023-05-12T03:44:10.233Z,1013.55
2023-05-12T03:45:10.204Z,1013.50
2023-05-12T03:46:10.270Z,1013.54
2023-05-12T03:47:10.252Z,1013.55
2023-05-12T03:48:10.262Z,1013.54
2023-05-12T03:49:10.233Z,1013.59
2023-05-12T03:50:10.228Z,1013.53
2023-05-12T03:51:10.234Z,1013.56
2023-05-12T03:52:10.235Z,1013.54
2023-05-12T03:53:10.227Z,1013.57
2023-05-12T03:54:10.210Z,1013.54
2023-05-12T03:55:10.191Z,1013.56
2023-05-12T03:56:10.205Z,1013.56
2023-05-12T03:57:10.233Z,1013.58
2023-05-12T03:58:10.203Z,1013.61
2023-05-12T03:59:10.182Z,1013.56
2023-05-12T04:00:10.710Z,1013.57
2023-05-12T04:01:10.218Z,1013.59
2023-05-12T04:02:10.193Z,1013.55
2023-05-12T04:03:10.274Z,1013.58
2023-05-12T04:04:10.233Z,1013.64
2023-05-12T04:05:10.256Z,1013.60
2023-05-12T04:06:10.180Z,1013.61
2023-05-12T04:07:10.177Z,1013.60
2023-05-12T04:08:10.185Z,1013.61
2023-05-12T04:09:10.196Z,1013.60
2023-05-12T04:10:10.184Z,1013.63
2023-05-12T04:11:10.179Z,1013.63
2023-05-12T04:12:10.164Z,1013.60
2023-05-12T04:13:10.166Z,1013.61
2023-05-12T04:14:10.190Z,1013.62
2023-05-12T04:15:10.163Z,1013.62
2023-05-12T04:16:10.231Z,1013.65
2023-05-12T04:17:10.167Z,1013.66
2023-05-12T04:18:10.171Z,1013.65
2023-05-12T04:19:10.242Z,1013.64
2023-05-12T04:20:10.191Z,1013.67
2023-05-12T04:21:10.166Z,1013.67
2023-05-12T04:22:10.156Z,1013.68
2023-05-12T04:23:10.161Z,1013.66
2023-05-12T04:24:10.184Z,1013.71
2023-05-12T04:25:10.175Z,1013.69
2023-05-12T04:26:10.171Z,1013.69
2023-05-12T04:27:10.212Z,1013.68
2023-05-12T04:28:12.046Z,1013.70
2023-05-12T04:29:10.144Z,1013.72
2023-05-12T04:30:10.164Z,1013.70
2023-05-12T04:31:10.156Z,1013.72
2023-05-12T04:32:10.239Z,1013.69
2023-05-12T04:33:10.323Z,1013.75
2023-05-12T04:34:10.144Z,1013.75
2023-05-12T04:35:10.148Z,1013.73
2023-05-12T04:36:10.151Z,1013.68
2023-05-12T04:37:10.146Z,1013.70
2023-05-12T04:38:10.178Z,1013.71
2023-05-12T04:39:10.146Z,1013.71
2023-05-12T04:40:10.148Z,1013.74
2023-05-12T04:41:10.149Z,1013.74
2023-05-12T04:42:10.154Z,1013.78
2023-05-12T04:44:00.000Z,1013.80
2023-05-12T04:44:10.144Z,1013.79
2023-05-12T04:45:10.142Z,1013.80
2023-05-12T04:46:10.177Z,1013.79
2023-05-12T04:47:10.130Z,1013.85
2023-05-12T04:48:10.152Z,1013.84
2023-05-12T04:49:10.148Z,1013.83
2023-05-12T04:50:10.145Z,1013.85
2023-05-12T04:51:10.158Z,1013.87
2023-05-12T04:52:10.164Z,1013.92
2023-05-12T04:53:11.392Z,1013.87
2023-05-12T04:54:10.142Z,1013.87
2023-05-12T04:55:10.157Z,1013.89
2023-05-12T04:56:10.134Z,1013.91
2023-05-12T04:57:10.127Z,1013.88
2023-05-12T04:58:10.129Z,1013.88
2023-05-12T04:59:10.125Z,1013.92
2023-05-12T05:00:10.152Z,1013.96
2023-05-12T05:01:10.162Z,1013.96
2023-05-12T05:02:10.193Z,1013.93
2023-05-12T05:03:10.264Z,1013.95
2023-05-12T05:04:10.162Z,1013.97
2023-05-12T05:05:10.143Z,1014.00
2023-05-12T05:06:10.307Z,1014.00
2023-05-12T05:07:10.133Z,1014.00
2023-05-12T05:08:10.104Z,1014.00
2023-05-12T05:09:10.156Z,1014.03
2023-05-12T05:10:10.195Z,1014.05
2023-05-12T05:11:10.187Z,1014.10
2023-05-12T05:12:10.234Z,1014.05
2023-05-12T05:13:10.153Z,1014.10
2023-05-12T05:14:10.188Z,1014.06
2023-05-12T05:15:10.145Z,1014.08
2023-05-12T05:16:10.169Z,1014.06
2023-05-12T05:17:10.727Z,1014.11
2023-05-12T05:18:10.175Z,1014.10
2023-05-12T05:19:19.557Z,1014.12
2023-05-12T05:20:12.386Z,1014.14
2023-05-12T05:21:10.206Z,1014.13
2023-05-12T05:22:10.142Z,1014.17
2023-05-12T05:23:10.130Z,1014.14
2023-05-12T05:24:10.117Z,1014.14
2023-05-12T05:25:10.235Z,1014.15
2023-05-12T05:26:10.154Z,1014.15
2023-05-12T05:27:10.292Z,1014.20
2023-05-12T05:28:10.195Z,1014.15
2023-05-12T05:29:10.154Z,1014.19
2023-05-12T05:30:10.132Z,1014.18
2023-05-12T05:31:10.205Z,1014.14
2023-05-12T05:32:10.120Z,1014.15
2023-05-12T05:33:10.194Z,1014.08
2023-05-12T05:34:10.181Z,1014.14
2023-05-12T05:35:10.273Z,1014.16
2023-05-12T05:36:10.110Z,1014.16
2023-05-12T05:37:10.131Z,1014.31
2023-05-12T05:38:10.167Z,1014.33
2023-05-12T05:39:10.147Z,1014.34
2023-05-12T05:40:10.153Z,1014.37
2023-05-12T05:41:10.121Z,1014.46
2023-05-12T05:42:10.132Z,1014.46
2023-05-12T05:43:10.135Z,1014.40
2023-05-12T05:44:10.132Z,1014.49
2023-05-12T05:45:10.162Z,1014.57
2023-05-12T05:46:10.146Z,1014.59
2023-05-12T05:47:10.197Z,1014.64
2023-05-12T05:48:10.217Z,1014.66
2023-05-12T05:49:10.200Z,1014.65
2023-05-12T05:50:10.193Z,1014.71
2023-05-12T05:51:10.162Z,1014.78
2023-05-12T05:52:10.172Z,1014.79
2023-05-12T05:53:10.217Z,1014.80
2023-05-12T05:54:10.198Z,1014.86
2023-05-12T05:55:10.203Z,1014.92
2023-05-12T05:56:10.211Z,1014.97
2023-05-12T05:57:10.252Z,1014.96
2023-05-12T05:58:10.285Z,1015.02
2023-05-12T05:59:10.261Z,1015.06
2023-05-12T06:00:10.279Z,1015.13
2023-05-12T06:01:10.259Z,1015.23
2023-05-12T06:02:10.305Z,1015.30
2023-05-12T06:03:10.356Z,1015.37
2023-05-12T06:04:10.368Z,1015.49
2023-05-12T06:05:10.351Z,1015.59
2023-05-12T06:06:10.346Z,1015.60
2023-05-12T06:07:10.324Z,1015.71
2023-05-12T06:08:10.345Z,1015.81
2023-05-12T06:09:10.343Z,1015.85
2023-05-12T06:10:10.361Z,1015.79
2023-05-12T06:11:10.371Z,1015.71
2023-05-12T06:12:10.380Z,1015.71
2023-05-12T06:13:10.411Z,1015.58
2023-05-12T06:14:10.430Z,1015.45
2023-05-12T06:15:10.430Z,1015.37
2023-05-12T06:16:10.463Z,1015.38
2023-05-12T06:17:10.475Z,1015.39
2023-05-12T06:18:10.516Z,1015.44
2023-05-12T06:19:10.553Z,1015.31
2023-05-12T06:20:10.494Z,1015.18
2023-05-12T06:21:11.257Z,1015.15
2023-05-12T06:22:10.502Z,1015.04
2023-05-12T06:23:10.526Z,1014.98
2023-05-12T06:24:10.567Z,1014.99
2023-05-12T06:25:10.574Z,1015.02
2023-05-12T06:26:10.577Z,1015.10
2023-05-12T06:27:10.567Z,1015.15
2023-05-12T06:28:10.593Z,1015.09
2023-05-12T06:29:10.605Z,1015.05
2023-05-12T06:30:10.614Z,1015.06
2023-05-12T06:31:10.725Z,1014.99
2023-05-12T06:32:10.804Z,1015.06
2023-05-12T06:33:10.694Z,1015.07
2023-05-12T06:34:10.724Z,1015.11
2023-05-12T06:35:10.780Z,1015.15
2023-05-12T06:36:10.712Z,1015.13
2023-05-12T06:37:10.756Z,1015.13
2023-05-12T06:38:10.740Z,1015.12
2023-05-12T06:39:10.757Z,1015.09
2023-05-12T06:40:10.779Z,1015.11
2023-05-12T06:41:10.778Z,1015.09
2023-05-12T06:42:10.786Z,1015.09
2023-05-12T06:43:10.824Z,1015.14
2023-05-12T06:44:10.823Z,1015.14
2023-05-12T06:45:10.878Z,1014.95
2023-05-12T06:46:10.863Z,1014.92
2023-05-12T06:47:10.881Z,1014.94
2023-05-12T06:48:10.892Z,1014.92
2023-05-12T06:49:10.895Z,1014.94
2023-05-12T06:50:10.918Z,1014.95
2023-05-12T06:51:10.923Z,1014.95
2023-05-12T06:52:11.024Z,1014.96
2023-05-12T06:53:10.987Z,1014.98
2023-05-12T06:54:10.955Z,1015.04
2023-05-12T06:55:11.005Z,1015.18
2023-05-12T06:56:10.995Z,1015.38
2023-05-12T06:57:11.009Z,1015.54
2023-05-12T06:58:11.020Z,1015.35
2023-05-12T06:59:11.065Z,1015.01
2023-05-12T07:00:11.071Z,1014.92
2023-05-12T07:01:11.104Z,1014.93
2023-05-12T07:02:11.088Z,1014.91
2023-05-12T07:03:11.125Z,1014.88
2023-05-12T07:04:11.328Z,1014.87
2023-05-12T07:05:11.147Z,1014.86
2023-05-12T07:06:11.219Z,1014.88
2023-05-12T07:07:11.220Z,1014.86
2023-05-12T07:08:11.221Z,1014.86
2023-05-12T07:09:11.200Z,1014.90
2023-05-12T07:10:11.206Z,1014.90
2023-05-12T07:11:11.237Z,1014.90
2023-05-12T07:12:11.230Z,1014.93
2023-05-12T07:13:11.261Z,1014.96
2023-05-12T07:14:11.301Z,1014.91
2023-05-12T07:15:11.303Z,1014.90
2023-05-12T07:16:11.341Z,1014.90
2023-05-12T07:17:11.326Z,1014.92
2023-05-12T07:18:11.398Z,1014.92
2023-05-12T07:19:11.455Z,1014.93
2023-05-12T07:20:11.682Z,1014.94
2023-05-12T07:21:11.421Z,1014.94
2023-05-12T07:22:11.385Z,1014.97
2023-05-12T07:23:11.431Z,1014.94
2023-05-12T07:24:11.418Z,1014.96
2023-05-12T07:25:11.482Z,1014.95
2023-05-12T07:26:11.453Z,1014.96
2023-05-12T07:27:11.488Z,1014.97
2023-05-12T07:28:11.499Z,1014.98
2023-05-12T07:29:13.440Z,1015.01
2023-05-12T07:30:11.521Z,1015.01
2023-05-12T07:31:11.715Z,1015.06
2023-05-12T07:32:11.550Z,1015.03
2023-05-12T07:33:11.615Z,1015.01
2023-05-12T07:34:11.594Z,1014.98
2023-05-12T07:35:11.615Z,1014.99
2023-05-12T07:36:11.624Z,1014.96
2023-05-12T07:37:11.648Z,1014.99
2023-05-12T07:38:11.653Z,1014.98
2023-05-12T07:39:11.673Z,1014.97
2023-05-12T07:40:11.681Z,1014.93
2023-05-12T07:41:11.697Z,1014.95
2023-05-12T07:42:11.714Z,1014.98
2023-05-12T07:43:11.734Z,1014.96
2023-05-12T07:44:11.790Z,1014.97
2023-05-12T07:45:11.782Z,1014.95
2023-05-12T07:46:11.796Z,1014.93
2023-05-12T07:47:11.826Z,1014.98
2023-05-12T07:48:11.875Z,1015.00
2023-05-12T07:49:11.836Z,1014.96
2023-05-12T07:50:11.857Z,1014.94
2023-05-12T07:51:11.863Z,1014.93
2023-05-12T07:52:11.915Z,1014.92
2023-05-12T07:53:11.907Z,1014.95
2023-05-12T07:54:11.919Z,1014.92
2023-05-12T07:55:11.926Z,1014.91
2023-05-12T07:56:11.942Z,1014.87
2023-05-12T07:57:11.968Z,1014.86
2023-05-12T07:58:11.981Z,1014.89
2023-05-12T07:59:11.994Z,1014.96
2023-05-12T08:00:12.014Z,1014.97
2023-05-12T08:01:12.027Z,1014.95
2023-05-12T08:02:12.085Z,1014.95
2023-05-12T08:03:12.158Z,1014.93
2023-05-12T08:04:12.180Z,1014.94
2023-05-12T08:05:12.079Z,1014.85
2023-05-12T08:06:12.098Z,1014.85
2023-05-12T08:07:12.123Z,1014.88
2023-05-12T08:08:12.237Z,1014.87
2023-05-12T08:09:12.210Z,1014.86
2023-05-12T08:10:12.256Z,1014.87
2023-05-12T08:11:12.257Z,1014.84
2023-05-12T08:12:12.222Z,1014.86
2023-05-12T08:13:12.216Z,1014.83
2023-05-12T08:14:12.238Z,1014.87
2023-05-12T08:15:12.239Z,1014.84
2023-05-12T08:16:12.251Z,1014.81
2023-05-12T08:17:12.334Z,1014.81
2023-05-12T08:18:12.316Z,1014.83
2023-05-12T08:19:12.341Z,1014.83
2023-05-12T08:20:12.337Z,1014.82
2023-05-12T08:21:12.315Z,1014.76
2023-05-12T08:22:12.357Z,1014.78
2023-05-12T08:23:12.326Z,1014.79
2023-05-12T08:24:12.404Z,1014.78
2023-05-12T08:25:12.774Z,1014.75
2023-05-12T08:26:12.358Z,1014.76
2023-05-12T08:27:12.387Z,1014.71
2023-05-12T08:28:12.419Z,1014.69
2023-05-12T08:29:12.389Z,1014.78
2023-05-12T08:30:12.376Z,1014.77
2023-05-12T08:31:12.476Z,1014.77
2023-05-12T08:32:12.410Z,1014.73
2023-05-12T08:33:12.482Z,1014.78
2023-05-12T08:34:12.441Z,1014.72
2023-05-12T08:35:12.430Z,1014.70
2023-05-12T08:36:12.447Z,1014.75
2023-05-12T08:37:12.466Z,1014.79
2023-05-12T08:38:12.450Z,1014.74
2023-05-12T08:39:12.492Z,1014.87
2023-05-12T08:40:12.490Z,1014.72
2023-05-12T08:41:12.542Z,1014.75
2023-05-12T08:42:12.511Z,1014.71
2023-05-12T08:43:13.424Z,1014.76
2023-05-12T08:44:12.562Z,1014.74
2023-05-12T08:45:12.620Z,1014.75
2023-05-12T08:46:12.598Z,1014.77
2023-05-12T08:47:12.538Z,1014.75
2023-05-12T08:48:12.547Z,1014.70
2023-05-12T08:49:12.591Z,1014.76
2023-05-12T08:50:12.548Z,1014.71
2023-05-12T08:51:13.394Z,1014.70
2023-05-12T08:52:12.544Z,1014.74
2023-05-12T08:53:12.550Z,1014.72
2023-05-12T08:54:12.594Z,1014.76
2023-05-12T08:55:12.610Z,1014.68
2023-05-12T08:57:12.567Z,1014.71
2023-05-12T08:58:12.558Z,1014.71
2023-05-12T08:59:12.566Z,1014.74
2023-05-12T09:00:12.609Z,1014.71
2023-05-12T09:01:12.751Z,1014.67
2023-05-12T09:02:12.623Z,1014.67
2023-05-12T09:03:12.618Z,1014.63
2023-05-12T09:04:12.706Z,1014.70
2023-05-12T09:05:12.645Z,1014.63
2023-05-12T09:06:12.670Z,1014.72
2023-05-12T09:07:12.610Z,1014.67
2023-05-12T09:08:12.612Z,1014.68
2023-05-12T09:09:12.646Z,1014.63
2023-05-12T09:10:22.460Z,1014.59
2023-05-12T09:11:12.641Z,1014.68
2023-05-12T09:12:14.020Z,1014.69
2023-05-12T09:13:12.664Z,1014.68
2023-05-12T09:14:12.655Z,1014.67
2023-05-12T09:15:12.686Z,1014.65
2023-05-12T09:16:12.690Z,1014.73
2023-05-12T09:17:12.686Z,1014.70
2023-05-12T09:18:12.691Z,1014.69
2023-05-12T09:19:12.731Z,1014.63
2023-05-12T09:20:23.906Z,1014.65
2023-05-12T09:21:12.697Z,1014.64
2023-05-12T09:22:12.707Z,1014.65
2023-05-12T09:23:12.702Z,1014.58
2023-05-12T09:24:12.715Z,1014.66
2023-05-12T09:25:14.585Z,1014.57
2023-05-12T09:26:12.732Z,1014.57
2023-05-12T09:27:12.737Z,1014.57
2023-05-12T09:28:12.777Z,1014.64
2023-05-12T09:29:18.271Z,1014.61
2023-05-12T09:30:12.768Z,1014.54
2023-05-12T09:31:14.640Z,1014.56
2023-05-12T09:32:12.836Z,1014.60
2023-05-12T09:33:12.834Z,1014.58
2023-05-12T09:34:12.754Z,1014.59
2023-05-12T09:35:12.770Z,1014.63
2023-05-12T09:36:12.775Z,1014.57
2023-05-12T09:37:15.209Z,1014.62
2023-05-12T09:38:12.798Z,1014.61
2023-05-12T09:39:12.816Z,1014.60
2023-05-12T09:40:12.955Z,1014.56
2023-05-12T09:41:12.779Z,1014.51
2023-05-12T09:42:12.826Z,1014.52
2023-05-12T09:43:15.266Z,1014.48
2023-05-12T09:44:12.827Z,1014.51
2023-05-12T09:45:12.799Z,1014.49
2023-05-12T09:46:12.883Z,1014.47
2023-05-12T09:47:12.822Z,1014.54
2023-05-12T09:48:12.815Z,1014.54
2023-05-12T09:49:12.828Z,1014.56
2023-05-12T09:50:12.836Z,1014.58
2023-05-12T09:51:12.821Z,1014.62
2023-05-12T09:52:12.830Z,1014.47
2023-05-12T09:53:12.861Z,1014.54
2023-05-12T09:54:12.828Z,1014.49
2023-05-12T09:55:12.889Z,1014.49
2023-05-12T09:56:12.846Z,1014.52
2023-05-12T09:57:12.860Z,1014.51
2023-05-12T09:58:12.861Z,1014.49
2023-05-12T09:59:12.848Z,1014.50
2023-05-12T10:00:29.776Z,1014.50
2023-05-12T10:01:22.619Z,1014.48
2023-05-12T10:02:12.872Z,1014.48
2023-05-12T10:03:12.883Z,1014.43
2023-05-12T10:04:12.905Z,1014.44
2023-05-12T10:05:13.093Z,1014.42
2023-05-12T10:06:12.914Z,1014.42
2023-05-12T10:07:12.895Z,1014.42
2023-05-12T10:08:12.909Z,1014.56
2023-05-12T10:09:12.901Z,1014.50
2023-05-12T10:10:12.907Z,1014.44
2023-05-12T10:11:12.891Z,1014.46
2023-05-12T10:12:12.906Z,1014.48
2023-05-12T10:13:12.915Z,1014.48
2023-05-12T10:14:12.903Z,1014.44
2023-05-12T10:15:12.917Z,1014.46
2023-05-12T10:16:13.134Z,1014.38
2023-05-12T10:17:12.985Z,1014.39
2023-05-12T10:18:12.982Z,1014.39
2023-05-12T10:19:12.960Z,1014.38
2023-05-12T10:20:12.940Z,1014.45
2023-05-12T10:21:12.955Z,1014.48
2023-05-12T10:22:12.941Z,1014.46
2023-05-12T10:23:12.947Z,1014.47
2023-05-12T10:24:12.954Z,1014.43
2023-05-12T10:25:12.971Z,1014.44
2023-05-12T10:26:12.972Z,1014.41
2023-05-12T10:27:12.967Z,1014.42
2023-05-12T10:28:12.952Z,1014.42
2023-05-12T10:29:12.992Z,1014.44
2023-05-12T10:30:12.970Z,1014.37
2023-05-12T10:31:13.033Z,1014.38
2023-05-12T10:32:12.993Z,1014.35
2023-05-12T10:33:12.984Z,1014.42
2023-05-12T10:34:13.017Z,1014.39
2023-05-12T10:35:12.998Z,1014.38
2023-05-12T10:36:12.996Z,1014.34
2023-05-12T10:37:13.006Z,1014.34
2023-05-12T10:38:13.006Z,1014.34
2023-05-12T10:39:13.014Z,1014.38
2023-05-12T10:40:13.015Z,1014.39
2023-05-12T10:41:13.034Z,1014.34
2023-05-12T10:42:13.021Z,1014.38
2023-05-12T10:43:13.039Z,1014.36
2023-05-12T10:44:13.046Z,1014.34
2023-05-12T10:45:13.060Z,1014.38
2023-05-12T10:46:13.072Z,1014.37
2023-05-12T10:47:13.331Z,1014.30
2023-05-12T10:48:13.093Z,1014.30
2023-05-12T10:49:13.061Z,1014.31
2023-05-12T10:50:13.045Z,1014.27
2023-05-12T10:51:13.045Z,1014.29
2023-05-12T10:52:13.090Z,1014.32
2023-05-12T10:53:13.054Z,1014.23
2023-05-12T10:54:15.000Z,1014.22
2023-05-12T10:55:13.141Z,1014.24
2023-05-12T10:56:13.390Z,1014.27
2023-05-12T10:57:16.021Z,1014.28
2023-05-12T10:58:13.419Z,1014.31
2023-05-12T10:59:13.910Z,1014.33
2023-05-12T11:00:13.536Z,1014.36
2023-05-12T11:01:13.537Z,1014.30
2023-05-12T11:02:13.650Z,1014.30
2023-05-12T11:03:13.372Z,1014.33
2023-05-12T11:04:13.436Z,1014.31
2023-05-12T11:05:13.619Z,1014.27
2023-05-12T11:06:13.884Z,1014.26
2023-05-12T11:07:14.031Z,1014.26
2023-05-12T11:08:14.235Z,1014.21
2023-05-12T11:09:13.568Z,1014.27
2023-05-12T11:10:13.466Z,1014.23
2023-05-12T11:11:13.674Z,1014.17
2023-05-12T11:12:13.127Z,1014.20
2023-05-12T11:13:13.135Z,1014.20
2023-05-12T11:14:13.152Z,1014.14
2023-05-12T11:15:13.155Z,1014.24
2023-05-12T11:16:13.223Z,1014.24
2023-05-12T11:17:13.128Z,1014.27
2023-05-12T11:18:13.229Z,1014.23
2023-05-12T11:19:13.284Z,1014.18
2023-05-12T11:20:13.198Z,1014.23
2023-05-12T11:21:13.173Z,1014.23
2023-05-12T11:22:13.177Z,1014.17
2023-05-12T11:23:13.156Z,1014.18
2023-05-12T11:24:13.184Z,1014.16
2023-05-12T11:25:13.193Z,1014.10
2023-05-12T11:26:13.174Z,1014.11
2023-05-12T11:27:13.181Z,1014.16
2023-05-12T11:28:13.199Z,1014.13
2023-05-12T11:29:13.209Z,1014.20
2023-05-12T11:30:13.222Z,1014.17
2023-05-12T11:31:13.212Z,1014.14
2023-05-12T11:32:13.205Z,1014.15
2023-05-12T11:33:13.236Z,1014.11
2023-05-12T11:34:13.730Z,1014.16
2023-05-12T11:35:13.209Z,1014.11
2023-05-12T11:36:13.482Z,1014.14
2023-05-12T11:37:13.219Z,1014.17
2023-05-12T11:38:13.209Z,1014.16
2023-05-12T11:39:13.211Z,1014.19
2023-05-12T11:40:13.242Z,1014.22
2023-05-12T11:41:13.219Z,1014.20
2023-05-12T11:42:14.259Z,1014.27
2023-05-12T11:43:13.316Z,1014.23
2023-05-12T11:44:13.237Z,1014.25
2023-05-12T11:45:13.230Z,1014.23
2023-05-12T11:46:13.315Z,1014.19
2023-05-12T11:47:13.245Z,1014.19
2023-05-12T11:48:13.298Z,1014.24
2023-05-12T11:49:13.240Z,1014.25
2023-05-12T11:50:13.377Z,1014.21
2023-05-12T11:51:13.251Z,1014.28
2023-05-12T11:52:13.292Z,1014.28
2023-05-12T11:53:13.252Z,1014.25
2023-05-12T11:54:13.256Z,1014.12
2023-05-12T11:55:13.272Z,1014.25
2023-05-12T11:56:13.275Z,1014.25
2023-05-12T11:57:13.293Z,1014.25
2023-05-12T11:58:13.281Z,1014.29
2023-05-12T11:59:13.274Z,1014.26
2023-05-12T12:00:13.355Z,1014.22
2023-05-12T12:01:13.287Z,1014.27
2023-05-12T12:02:13.348Z,1014.29
2023-05-12T12:03:13.479Z,1014.29
2023-05-12T12:04:13.321Z,1014.23
2023-05-12T12:05:13.290Z,1014.24
2023-05-12T12:06:13.310Z,1014.23
2023-05-12T12:07:13.330Z,1014.28
2023-05-12T12:08:13.358Z,1014.26
2023-05-12T12:09:13.303Z,1014.25
2023-05-12T12:10:13.308Z,1014.24
2023-05-12T12:11:13.337Z,1014.27
2023-05-12T12:12:13.316Z,1014.27
2023-05-12T12:13:13.335Z,1014.21
2023-05-12T12:14:13.325Z,1014.27
2023-05-12T12:15:13.320Z,1014.21
2023-05-12T12:16:14.852Z,1014.22
2023-05-12T12:17:13.394Z,1014.32
2023-05-12T12:18:13.425Z,1014.30
2023-05-12T12:19:13.415Z,1014.28
2023-05-12T12:20:13.374Z,1014.32
2023-05-12T12:21:13.349Z,1014.34
2023-05-12T12:22:13.362Z,1014.27
2023-05-12T12:23:13.384Z,1014.36
2023-05-12T12:24:13.370Z,1014.39
2023-05-12T12:25:13.361Z,1014.27
2023-05-12T12:26:13.371Z,1014.35
2023-05-12T12:27:13.382Z,1014.38
2023-05-12T12:28:13.418Z,1014.36
2023-05-12T12:29:13.387Z,1014.30
2023-05-12T12:30:13.407Z,1014.30
2023-05-12T12:31:13.459Z,1014.37
2023-05-12T12:32:13.412Z,1014.31
2023-05-12T12:33:13.475Z,1014.28
2023-05-12T12:34:13.424Z,1014.29
2023-05-12T12:35:13.412Z,1014.29
2023-05-12T12:36:13.392Z,1014.26
2023-05-12T12:37:13.411Z,1014.24